首页
METAR-TAF:

METAR-TAF

机场 :

開羅國際機場

开罗, 埃及

纬度: 30-08N, 经度: 031-24E, 海拔: 64米

当前天气观测

该预报发布于10分钟前的08:00 UTC
风速8节,风向北转东北
温度 31°C
湿度 49%
气压 1013 hPa
能见度10公里或以上
散云层高于2500英尺

METAR: HECA 230800Z 02008KT 9999 SCT025 31/19 Q1013 NOSIG

时间: 10:10 (08:10 UTC)

预报

该预报发布于3小时和10分钟前的05:00 UTC
预报有效从23日的 06点(UTC)到 24日的 12点(UTC)
风速8节,风向北转东北
能見度: 6000
短暂存在
从 23日的 06点(UTC)到 23日的 08点(UTC)
成为
从 23日的 08点(UTC)到 23日的 10点(UTC)
风速10节,风向
能见度10公里或以上
1500米以下无云,无积雨云

TAF: HECA 230500Z 2306/2412 03008KT 6000 NSC TEMPO 2306/2308 4000HZ BECMG 2308/2310 35010KT CAVOK

超过4000个机场的气象观测和天气预报(METAR&TAF报告)。

可查询的气象台以黄色和红色小点在地图上表示。

将鼠标移到小点上方,可查看气象台名称。

然后点击查看天气观测和预报。

如需切换地图:点击带黑十字的绿色按钮放大地图;点击带横线的绿色按钮缩小地图;或者点击绿色箭头查看邻近地区的地图。


METAR-TAF: